Fairview, North Carolina
Current Conditions -  °F | °C
As of 9:54 PM on Thursday 27 Nov 2014 (Local Time) from KAVL Reporting Station
Light Snow Light Snow  
Wind Chill: 18°   Ceiling: 2400
Heat Index: 30°   Visibility: 9mi
Dew Point: 22°   Wind: 17mph
Humidity: 72%   Direction: 350°N
Pressure: 30.26"   Gusts: 25mph
Location:  35.52°N, 82.4°W
Report Text: KAVL 280254Z 35015G22KT 9SM -SN BKN024 BKN028 OVC043 M01/M06 A3026 RMK AO2 SLP256 P0000 60000 T10111056 51009
Loading
Personal Weather Stations






























Interactive Weather Map New forecast layout! Learn more

10-Day Weather Forecast

Advertisements
Track Severe Weather on mobile